sensor_id;sensor_type;location;lat;lon;timestamp;pressure;altitude;pressure_sealevel;temperature;humidity
72570;BME280;60594;50.204;8.844;2022-10-16T00:01:16;99739.53;;;15.33;100.00
72570;BME280;60594;50.204;8.844;2022-10-16T00:03:45;99739.69;;;15.32;100.00
72570;BME280;60594;50.204;8.844;2022-10-16T00:06:12;99736.06;;;14.99;100.00
72570;BME280;60594;50.204;8.844;2022-10-16T00:08:39;99751.31;;;14.91;100.00
72570;BME280;60594;50.204;8.844;2022-10-16T00:11:10;99747.22;;;14.79;100.00
72570;BME280;60594;50.204;8.844;2022-10-16T00:13:39;99749.78;;;14.88;100.00
72570;BME280;60594;50.204;8.844;2022-10-16T00:16:06;99728.59;;;14.77;100.00
72570;BME280;60594;50.204;8.844;2022-10-16T00:18:33;99736.69;;;14.85;100.00
72570;BME280;60594;50.204;8.844;2022-10-16T00:21:08;99727.72;;;15.10;100.00
72570;BME280;60594;50.204;8.844;2022-10-16T00:23:58;99722.56;;;15.25;100.00
72570;BME280;60594;50.204;8.844;2022-10-16T00:26:26;99721.75;;;15.32;100.00
72570;BME280;60594;50.204;8.844;2022-10-16T00:28:53;99732.38;;;15.42;100.00
72570;BME280;60594;50.204;8.844;2022-10-16T00:31:22;99727.16;;;15.40;100.00
72570;BME280;60594;50.204;8.844;2022-10-16T00:33:49;99730.56;;;15.01;100.00
72570;BME280;60594;50.204;8.844;2022-10-16T00:36:18;99736.19;;;14.82;100.00
72570;BME280;60594;50.204;8.844;2022-10-16T00:38:45;99736.81;;;14.76;100.00
72570;BME280;60594;50.204;8.844;2022-10-16T00:41:14;99743.19;;;14.75;100.00
72570;BME280;60594;50.204;8.844;2022-10-16T00:46:37;99737.41;;;14.62;100.00
72570;BME280;60594;50.204;8.844;2022-10-16T00:49:15;99730.84;;;14.56;100.00
72570;BME280;60594;50.204;8.844;2022-10-16T00:51:48;99726.69;;;14.62;100.00
72570;BME280;60594;50.204;8.844;2022-10-16T00:54:20;99732.44;;;14.67;100.00
72570;BME280;60594;50.204;8.844;2022-10-16T00:56:48;99729.28;;;14.79;100.00
72570;BME280;60594;50.204;8.844;2022-10-16T00:59:19;99732.06;;;14.70;100.00
72570;BME280;60594;50.204;8.844;2022-10-16T01:01:46;99739.13;;;14.63;100.00
72570;BME280;60594;50.204;8.844;2022-10-16T01:04:12;99737.41;;;14.62;100.00
72570;BME280;60594;50.204;8.844;2022-10-16T01:06:54;99756.03;;;14.63;100.00
72570;BME280;60594;50.204;8.844;2022-10-16T01:09:30;99748.69;;;14.65;100.00
72570;BME280;60594;50.204;8.844;2022-10-16T01:12:09;99745.50;;;14.70;100.00
72570;BME280;60594;50.204;8.844;2022-10-16T01:14:40;99749.19;;;14.69;100.00
72570;BME280;60594;50.204;8.844;2022-10-16T01:17:14;99759.88;;;14.61;100.00
72570;BME280;60594;50.204;8.844;2022-10-16T01:19:57;99755.69;;;14.58;100.00
72570;BME280;60594;50.204;8.844;2022-10-16T01:22:44;99772.94;;;14.56;100.00
72570;BME280;60594;50.204;8.844;2022-10-16T01:25:29;99759.88;;;14.61;100.00
72570;BME280;60594;50.204;8.844;2022-10-16T01:27:59;99774.66;;;14.65;100.00
72570;BME280;60594;50.204;8.844;2022-10-16T01:30:30;99764.63;;;14.67;100.00
72570;BME280;60594;50.204;8.844;2022-10-16T01:33:23;99765.25;;;14.61;100.00
72570;BME280;60594;50.204;8.844;2022-10-16T01:35:52;99766.41;;;14.58;100.00
72570;BME280;60594;50.204;8.844;2022-10-16T01:38:37;99768.38;;;14.56;100.00
72570;BME280;60594;50.204;8.844;2022-10-16T01:41:18;99761.50;;;14.54;100.00
72570;BME280;60594;50.204;8.844;2022-10-16T01:43:50;99759.13;;;14.51;100.00
72570;BME280;60594;50.204;8.844;2022-10-16T01:46:20;99753.78;;;14.51;100.00
72570;BME280;60594;50.204;8.844;2022-10-16T01:48:49;99745.06;;;14.49;100.00
72570;BME280;60594;50.204;8.844;2022-10-16T01:51:17;99747.19;;;14.45;100.00
72570;BME280;60594;50.204;8.844;2022-10-16T01:53:48;99748.06;;;14.46;100.00
72570;BME280;60594;50.204;8.844;2022-10-16T01:56:17;99758.50;;;14.57;100.00
72570;BME280;60594;50.204;8.844;2022-10-16T01:58:47;99761.81;;;14.51;100.00
72570;BME280;60594;50.204;8.844;2022-10-16T02:01:18;99763.69;;;14.50;100.00
72570;BME280;60594;50.204;8.844;2022-10-16T02:03:50;99762.66;;;14.51;100.00
72570;BME280;60594;50.204;8.844;2022-10-16T02:06:17;99769.69;;;14.52;100.00
72570;BME280;60594;50.204;8.844;2022-10-16T02:08:44;99761.78;;;14.43;100.00
72570;BME280;60594;50.204;8.844;2022-10-16T02:11:10;99767.28;;;14.41;100.00
72570;BME280;60594;50.204;8.844;2022-10-16T02:16:07;99756.34;;;14.35;100.00
72570;BME280;60594;50.204;8.844;2022-10-16T02:18:35;99767.94;;;14.35;100.00
72570;BME280;60594;50.204;8.844;2022-10-16T02:21:19;99770.16;;;14.48;100.00
72570;BME280;60594;50.204;8.844;2022-10-16T02:23:53;99782.75;;;14.47;100.00
72570;BME280;60594;50.204;8.844;2022-10-16T02:26:28;99790.81;;;14.47;100.00
72570;BME280;60594;50.204;8.844;2022-10-16T02:29:00;99784.44;;;14.48;100.00
72570;BME280;60594;50.204;8.844;2022-10-16T02:31:32;99784.75;;;14.45;100.00
72570;BME280;60594;50.204;8.844;2022-10-16T02:34:02;99787.97;;;14.49;100.00
72570;BME280;60594;50.204;8.844;2022-10-16T02:36:31;99787.16;;;14.56;100.00
72570;BME280;60594;50.204;8.844;2022-10-16T02:38:59;99780.13;;;14.55;100.00
72570;BME280;60594;50.204;8.844;2022-10-16T02:41:27;99785.34;;;14.57;100.00
72570;BME280;60594;50.204;8.844;2022-10-16T02:43:53;99771.06;;;14.56;100.00
72570;BME280;60594;50.204;8.844;2022-10-16T02:46:21;99766.41;;;14.58;100.00
72570;BME280;60594;50.204;8.844;2022-10-16T02:48:47;99785.03;;;14.60;100.00
72570;BME280;60594;50.204;8.844;2022-10-16T02:51:14;99785.53;;;14.63;100.00
72570;BME280;60594;50.204;8.844;2022-10-16T02:53:40;99773.13;;;14.62;100.00
72570;BME280;60594;50.204;8.844;2022-10-16T02:56:06;99778.97;;;14.58;100.00
72570;BME280;60594;50.204;8.844;2022-10-16T02:58:33;99789.84;;;14.56;100.00
72570;BME280;60594;50.204;8.844;2022-10-16T03:01:00;99776.38;;;14.48;100.00
72570;BME280;60594;50.204;8.844;2022-10-16T03:03:26;99780.16;;;14.63;100.00
72570;BME280;60594;50.204;8.844;2022-10-16T03:05:52;99786.38;;;14.64;100.00
72570;BME280;60594;50.204;8.844;2022-10-16T03:08:19;99787.69;;;14.60;100.00
72570;BME280;60594;50.204;8.844;2022-10-16T03:10:50;99789.34;;;14.53;100.00
72570;BME280;60594;50.204;8.844;2022-10-16T03:13:16;99790.53;;;14.58;100.00
72570;BME280;60594;50.204;8.844;2022-10-16T03:15:43;99793.22;;;14.58;100.00
72570;BME280;60594;50.204;8.844;2022-10-16T03:18:09;99783.13;;;14.52;100.00
72570;BME280;60594;50.204;8.844;2022-10-16T03:20:36;99813.00;;;14.57;100.00
72570;BME280;60594;50.204;8.844;2022-10-16T03:23:02;99809.34;;;14.66;100.00
72570;BME280;60594;50.204;8.844;2022-10-16T03:25:29;99817.59;;;14.73;100.00
72570;BME280;60594;50.204;8.844;2022-10-16T03:27:55;99804.03;;;14.74;100.00
72570;BME280;60594;50.204;8.844;2022-10-16T03:30:21;99794.97;;;14.75;100.00
72570;BME280;60594;50.204;8.844;2022-10-16T03:32:47;99810.13;;;14.84;100.00
72570;BME280;60594;50.204;8.844;2022-10-16T03:35:14;99819.72;;;14.87;100.00
72570;BME280;60594;50.204;8.844;2022-10-16T03:37:40;99817.81;;;14.79;100.00
72570;BME280;60594;50.204;8.844;2022-10-16T03:40:07;99827.97;;;14.68;100.00
72570;BME280;60594;50.204;8.844;2022-10-16T03:42:33;99825.81;;;14.71;100.00
72570;BME280;60594;50.204;8.844;2022-10-16T03:44:59;99816.41;;;14.67;100.00
72570;BME280;60594;50.204;8.844;2022-10-16T03:47:26;99815.56;;;14.67;100.00
72570;BME280;60594;50.204;8.844;2022-10-16T03:49:52;99819.38;;;14.64;100.00
72570;BME280;60594;50.204;8.844;2022-10-16T03:52:18;99814.28;;;14.53;100.00
72570;BME280;60594;50.204;8.844;2022-10-16T03:54:45;99831.66;;;14.67;100.00
72570;BME280;60594;50.204;8.844;2022-10-16T03:57:11;99836.84;;;14.68;100.00
72570;BME280;60594;50.204;8.844;2022-10-16T03:59:38;99834.91;;;14.78;100.00
72570;BME280;60594;50.204;8.844;2022-10-16T04:02:04;99826.50;;;14.73;100.00
72570;BME280;60594;50.204;8.844;2022-10-16T04:04:30;99828.09;;;14.58;100.00
72570;BME280;60594;50.204;8.844;2022-10-16T04:06:57;99825.72;;;14.55;100.00
72570;BME280;60594;50.204;8.844;2022-10-16T04:09:23;99831.06;;;14.55;100.00
72570;BME280;60594;50.204;8.844;2022-10-16T04:11:49;99816.44;;;14.50;100.00
72570;BME280;60594;50.204;8.844;2022-10-16T04:14:15;99835.03;;;14.69;100.00
72570;BME280;60594;50.204;8.844;2022-10-16T04:16:42;99834.56;;;14.73;100.00
72570;BME280;60594;50.204;8.844;2022-10-16T04:19:09;99830.13;;;14.64;100.00
72570;BME280;60594;50.204;8.844;2022-10-16T04:21:36;99836.50;;;14.63;100.00
72570;BME280;60594;50.204;8.844;2022-10-16T04:24:03;99843.88;;;14.61;100.00
72570;BME280;60594;50.204;8.844;2022-10-16T04:26:30;99842.16;;;14.60;100.00
72570;BME280;60594;50.204;8.844;2022-10-16T04:28:56;99851.75;;;14.63;100.00
72570;BME280;60594;50.204;8.844;2022-10-16T04:31:22;99848.91;;;14.64;100.00
72570;BME280;60594;50.204;8.844;2022-10-16T04:33:49;99849.59;;;14.66;100.00
72570;BME280;60594;50.204;8.844;2022-10-16T04:36:15;99840.34;;;14.61;100.00
72570;BME280;60594;50.204;8.844;2022-10-16T04:38:41;99847.22;;;14.63;100.00
72570;BME280;60594;50.204;8.844;2022-10-16T04:41:08;99855.81;;;14.67;100.00
72570;BME280;60594;50.204;8.844;2022-10-16T04:43:34;99854.25;;;14.64;100.00
72570;BME280;60594;50.204;8.844;2022-10-16T04:46:00;99855.00;;;14.74;100.00
72570;BME280;60594;50.204;8.844;2022-10-16T04:48:27;99858.31;;;14.68;100.00
72570;BME280;60594;50.204;8.844;2022-10-16T04:50:54;99860.31;;;14.66;100.00
72570;BME280;60594;50.204;8.844;2022-10-16T04:53:21;99859.16;;;14.69;100.00
72570;BME280;60594;50.204;8.844;2022-10-16T04:55:47;99852.06;;;14.60;100.00
72570;BME280;60594;50.204;8.844;2022-10-16T04:58:14;99851.53;;;14.56;100.00
72570;BME280;60594;50.204;8.844;2022-10-16T05:00:40;99841.44;;;14.50;100.00
72570;BME280;60594;50.204;8.844;2022-10-16T05:03:06;99848.47;;;14.51;100.00
72570;BME280;60594;50.204;8.844;2022-10-16T05:05:35;99842.75;;;14.46;100.00
72570;BME280;60594;50.204;8.844;2022-10-16T05:08:02;99848.63;;;14.50;100.00
72570;BME280;60594;50.204;8.844;2022-10-16T05:10:29;99838.06;;;14.48;100.00
72570;BME280;60594;50.204;8.844;2022-10-16T05:12:55;99844.78;;;14.52;100.00
72570;BME280;60594;50.204;8.844;2022-10-16T05:15:21;99850.16;;;14.52;100.00
72570;BME280;60594;50.204;8.844;2022-10-16T05:17:54;99853.47;;;14.46;100.00
72570;BME280;60594;50.204;8.844;2022-10-16T05:20:21;99851.09;;;14.43;100.00
72570;BME280;60594;50.204;8.844;2022-10-16T05:22:48;99865.50;;;14.42;100.00
72570;BME280;60594;50.204;8.844;2022-10-16T05:25:14;99867.56;;;14.48;100.00
72570;BME280;60594;50.204;8.844;2022-10-16T05:27:41;99866.03;;;14.46;100.00
72570;BME280;60594;50.204;8.844;2022-10-16T05:30:07;99864.38;;;14.45;100.00
72570;BME280;60594;50.204;8.844;2022-10-16T05:32:34;99856.16;;;14.46;100.00
72570;BME280;60594;50.204;8.844;2022-10-16T05:35:00;99872.72;;;14.42;100.00
72570;BME280;60594;50.204;8.844;2022-10-16T05:37:29;99872.16;;;14.38;100.00
72570;BME280;60594;50.204;8.844;2022-10-16T05:39:56;99875.00;;;14.37;100.00
72570;BME280;60594;50.204;8.844;2022-10-16T05:42:22;99857.22;;;14.36;100.00
72570;BME280;60594;50.204;8.844;2022-10-16T05:44:48;99850.72;;;14.38;100.00
72570;BME280;60594;50.204;8.844;2022-10-16T05:47:14;99851.56;;;14.39;100.00
72570;BME280;60594;50.204;8.844;2022-10-16T05:49:41;99848.19;;;14.37;100.00
72570;BME280;60594;50.204;8.844;2022-10-16T05:52:07;99856.16;;;14.46;100.00
72570;BME280;60594;50.204;8.844;2022-10-16T05:54:34;99857.84;;;14.47;100.00
72570;BME280;60594;50.204;8.844;2022-10-16T05:57:00;99859.88;;;14.53;100.00
72570;BME280;60594;50.204;8.844;2022-10-16T05:59:26;99870.09;;;14.50;100.00
72570;BME280;60594;50.204;8.844;2022-10-16T06:01:52;99868.88;;;14.44;100.00
72570;BME280;60594;50.204;8.844;2022-10-16T06:04:19;99874.28;;;14.52;100.00
72570;BME280;60594;50.204;8.844;2022-10-16T06:06:45;99881.66;;;14.50;100.00
72570;BME280;60594;50.204;8.844;2022-10-16T06:09:12;99899.28;;;14.53;100.00
72570;BME280;60594;50.204;8.844;2022-10-16T06:11:38;99889.00;;;14.48;100.00
72570;BME280;60594;50.204;8.844;2022-10-16T06:14:05;99896.69;;;14.43;100.00
72570;BME280;60594;50.204;8.844;2022-10-16T06:16:34;99905.41;;;14.45;100.00
72570;BME280;60594;50.204;8.844;2022-10-16T06:19:01;99908.09;;;14.45;100.00
72570;BME280;60594;50.204;8.844;2022-10-16T06:21:28;99900.34;;;14.42;100.00
72570;BME280;60594;50.204;8.844;2022-10-16T06:23:56;99906.63;;;14.51;100.00
72570;BME280;60594;50.204;8.844;2022-10-16T06:26:25;99899.06;;;14.46;100.00
72570;BME280;60594;50.204;8.844;2022-10-16T06:28:55;99896.19;;;14.48;100.00
72570;BME280;60594;50.204;8.844;2022-10-16T06:31:22;99903.13;;;14.50;100.00
72570;BME280;60594;50.204;8.844;2022-10-16T06:33:51;99905.09;;;14.48;100.00
72570;BME280;60594;50.204;8.844;2022-10-16T06:36:17;99923.88;;;14.48;100.00
72570;BME280;60594;50.204;8.844;2022-10-16T06:38:46;99922.03;;;14.49;100.00
72570;BME280;60594;50.204;8.844;2022-10-16T06:41:16;99931.31;;;14.54;100.00
72570;BME280;60594;50.204;8.844;2022-10-16T06:43:43;99932.22;;;14.63;100.00
72570;BME280;60594;50.204;8.844;2022-10-16T06:46:13;99923.38;;;14.70;100.00
72570;BME280;60594;50.204;8.844;2022-10-16T06:48:39;99928.97;;;14.77;100.00
72570;BME280;60594;50.204;8.844;2022-10-16T06:51:10;99926.34;;;14.85;100.00
72570;BME280;60594;50.204;8.844;2022-10-16T06:53:42;99926.09;;;14.96;100.00
72570;BME280;60594;50.204;8.844;2022-10-16T06:56:15;99917.56;;;15.00;100.00
72570;BME280;60594;50.204;8.844;2022-10-16T06:58:42;99920.09;;;15.02;100.00
72570;BME280;60594;50.204;8.844;2022-10-16T07:01:11;99919.09;;;15.03;100.00
72570;BME280;60594;50.204;8.844;2022-10-16T07:03:41;99923.13;;;15.07;100.00
72570;BME280;60594;50.204;8.844;2022-10-16T07:06:11;99930.31;;;14.98;100.00
72570;BME280;60594;50.204;8.844;2022-10-16T07:08:40;99919.09;;;15.03;100.00
72570;BME280;60594;50.204;8.844;2022-10-16T07:11:10;99924.25;;;14.96;100.00
72570;BME280;60594;50.204;8.844;2022-10-16T07:13:41;99922.69;;;14.86;100.00
72570;BME280;60594;50.204;8.844;2022-10-16T07:16:17;99924.97;;;14.81;100.00
72570;BME280;60594;50.204;8.844;2022-10-16T07:18:44;99932.34;;;14.79;100.00
72570;BME280;60594;50.204;8.844;2022-10-16T07:21:17;99950.44;;;14.77;100.00
72570;BME280;60594;50.204;8.844;2022-10-16T07:23:44;99954.63;;;14.79;100.00
72570;BME280;60594;50.204;8.844;2022-10-16T07:26:11;99962.78;;;14.87;100.00
72570;BME280;60594;50.204;8.844;2022-10-16T07:28:38;99964.44;;;14.88;100.00
72570;BME280;60594;50.204;8.844;2022-10-16T07:31:08;99960.44;;;14.92;100.00
72570;BME280;60594;50.204;8.844;2022-10-16T07:33:37;99962.13;;;14.93;100.00
72570;BME280;60594;50.204;8.844;2022-10-16T07:36:05;99961.47;;;14.91;100.00
72570;BME280;60594;50.204;8.844;2022-10-16T07:38:32;99972.41;;;14.98;100.00
72570;BME280;60594;50.204;8.844;2022-10-16T07:41:10;99988.72;;;15.04;100.00
72570;BME280;60594;50.204;8.844;2022-10-16T07:43:39;99983.91;;;15.08;100.00
72570;BME280;60594;50.204;8.844;2022-10-16T07:46:05;99991.63;;;15.11;100.00
72570;BME280;60594;50.204;8.844;2022-10-16T07:48:33;99996.22;;;15.18;100.00
72570;BME280;60594;50.204;8.844;2022-10-16T07:51:03;99990.22;;;15.24;100.00
72570;BME280;60594;50.204;8.844;2022-10-16T07:53:30;100006.78;;;15.37;100.00
72570;BME280;60594;50.204;8.844;2022-10-16T07:56:01;100013.19;;;15.44;100.00
72570;BME280;60594;50.204;8.844;2022-10-16T07:58:28;100021.97;;;15.46;100.00
72570;BME280;60594;50.204;8.844;2022-10-16T08:00:55;100023.00;;;15.53;100.00
72570;BME280;60594;50.204;8.844;2022-10-16T08:03:23;100017.44;;;15.55;100.00
72570;BME280;60594;50.204;8.844;2022-10-16T08:05:49;100012.16;;;15.63;100.00
72570;BME280;60594;50.204;8.844;2022-10-16T08:08:17;100009.50;;;15.71;100.00
72570;BME280;60594;50.204;8.844;2022-10-16T08:10:44;100026.09;;;15.66;100.00
72570;BME280;60594;50.204;8.844;2022-10-16T08:13:11;100030.88;;;15.80;100.00
72570;BME280;60594;50.204;8.844;2022-10-16T08:15:38;100038.66;;;15.91;100.00
72570;BME280;60594;50.204;8.844;2022-10-16T08:18:05;100056.50;;;16.00;100.00
72570;BME280;60594;50.204;8.844;2022-10-16T08:20:32;100043.41;;;15.97;100.00
72570;BME280;60594;50.204;8.844;2022-10-16T08:23:00;100055.88;;;16.06;100.00
72570;BME280;60594;50.204;8.844;2022-10-16T08:25:27;100050.09;;;15.93;100.00
72570;BME280;60594;50.204;8.844;2022-10-16T08:27:56;100040.34;;;15.92;100.00
72570;BME280;60594;50.204;8.844;2022-10-16T08:30:24;100046.41;;;15.94;100.00
72570;BME280;60594;50.204;8.844;2022-10-16T08:32:50;100047.88;;;15.81;100.00
72570;BME280;60594;50.204;8.844;2022-10-16T08:35:17;100064.03;;;15.89;100.00
72570;BME280;60594;50.204;8.844;2022-10-16T08:37:44;100061.56;;;16.03;100.00
72570;BME280;60594;50.204;8.844;2022-10-16T08:40:22;100076.41;;;16.15;100.00
72570;BME280;60594;50.204;8.844;2022-10-16T08:48:48;100084.56;;;15.98;100.00
72570;BME280;60594;50.204;8.844;2022-10-16T08:51:28;100088.00;;;15.82;100.00
72570;BME280;60594;50.204;8.844;2022-10-16T08:54:04;100089.25;;;15.70;100.00
72570;BME280;60594;50.204;8.844;2022-10-16T08:56:30;100088.22;;;15.89;100.00
72570;BME280;60594;50.204;8.844;2022-10-16T08:58:58;100100.81;;;15.88;100.00
72570;BME280;60594;50.204;8.844;2022-10-16T09:01:59;100090.41;;;15.93;100.00
72570;BME280;60594;50.204;8.844;2022-10-16T09:15:43;100117.44;;;15.66;100.00
72570;BME280;60594;50.204;8.844;2022-10-16T09:18:15;100114.56;;;15.60;100.00
72570;BME280;60594;50.204;8.844;2022-10-16T09:21:01;100118.41;;;15.57;100.00
72570;BME280;60594;50.204;8.844;2022-10-16T09:23:35;100122.88;;;15.74;100.00
72570;BME280;60594;50.204;8.844;2022-10-16T09:26:02;100124.84;;;15.90;100.00
72570;BME280;60594;50.204;8.844;2022-10-16T09:28:29;100126.81;;;15.88;100.00
72570;BME280;60594;50.204;8.844;2022-10-16T09:30:56;100132.31;;;15.78;100.00
72570;BME280;60594;50.204;8.844;2022-10-16T09:33:29;100125.03;;;15.96;100.00
72570;BME280;60594;50.204;8.844;2022-10-16T09:36:02;100135.78;;;15.96;100.00
72570;BME280;60594;50.204;8.844;2022-10-16T09:38:32;100135.69;;;15.80;100.00
72570;BME280;60594;50.204;8.844;2022-10-16T09:41:01;100139.25;;;15.81;100.00
72570;BME280;60594;50.204;8.844;2022-10-16T09:43:35;100144.53;;;15.73;100.00
72570;BME280;60594;50.204;8.844;2022-10-16T09:46:31;100154.50;;;15.80;100.00
72570;BME280;60594;50.204;8.844;2022-10-16T09:49:16;100159.72;;;15.82;100.00
72570;BME280;60594;50.204;8.844;2022-10-16T09:51:45;100155.28;;;15.73;100.00
72570;BME280;60594;50.204;8.844;2022-10-16T09:54:17;100168.72;;;15.73;100.00
72570;BME280;60594;50.204;8.844;2022-10-16T09:56:44;100162.91;;;15.60;100.00
72570;BME280;60594;50.204;8.844;2022-10-16T09:59:20;100174.47;;;15.60;100.00
72570;BME280;60594;50.204;8.844;2022-10-16T10:01:49;100182.72;;;15.59;100.00
72570;BME280;60594;50.204;8.844;2022-10-16T10:04:22;100175.78;;;15.56;100.00
72570;BME280;60594;50.204;8.844;2022-10-16T10:06:51;100183.09;;;15.64;100.00
72570;BME280;60594;50.204;8.844;2022-10-16T10:09:27;100174.19;;;15.63;100.00
72570;BME280;60594;50.204;8.844;2022-10-16T10:12:00;100172.38;;;15.46;100.00
72570;BME280;60594;50.204;8.844;2022-10-16T10:14:41;100180.75;;;15.43;100.00
72570;BME280;60594;50.204;8.844;2022-10-16T10:17:23;100172.97;;;15.40;100.00
72570;BME280;60594;50.204;8.844;2022-10-16T10:19:57;100176.75;;;15.47;100.00
72570;BME280;60594;50.204;8.844;2022-10-16T10:22:44;100176.81;;;15.55;100.00
72570;BME280;60594;50.204;8.844;2022-10-16T10:34:16;100157.91;;;15.65;100.00
72570;BME280;60594;50.204;8.844;2022-10-16T10:36:49;100155.19;;;15.82;100.00
72570;BME280;60594;50.204;8.844;2022-10-16T10:39:28;100166.91;;;16.24;100.00
72570;BME280;60594;50.204;8.844;2022-10-16T10:48:15;100168.56;;;17.01;98.85
72570;BME280;60594;50.204;8.844;2022-10-16T10:51:11;100168.06;;;16.97;100.00
72570;BME280;60594;50.204;8.844;2022-10-16T11:02:13;100168.66;;;16.75;100.00
72570;BME280;60594;50.204;8.844;2022-10-16T11:07:32;100163.13;;;16.76;100.00
72570;BME280;60594;50.204;8.844;2022-10-16T11:10:13;100162.47;;;16.83;100.00
72570;BME280;60594;50.204;8.844;2022-10-16T11:12:51;100163.56;;;16.64;100.00
72570;BME280;60594;50.204;8.844;2022-10-16T11:15:29;100153.34;;;16.67;100.00
72570;BME280;60594;50.204;8.844;2022-10-16T11:18:15;100151.94;;;16.55;100.00
72570;BME280;60594;50.204;8.844;2022-10-16T11:20:49;100154.91;;;16.44;100.00
72570;BME280;60594;50.204;8.844;2022-10-16T11:23:44;100157.38;;;16.38;100.00
72570;BME280;60594;50.204;8.844;2022-10-16T11:26:16;100148.88;;;16.42;100.00
72570;BME280;60594;50.204;8.844;2022-10-16T11:28:48;100155.47;;;16.56;100.00
72570;BME280;60594;50.204;8.844;2022-10-16T11:31:22;100162.38;;;16.58;100.00
72570;BME280;60594;50.204;8.844;2022-10-16T11:34:05;100154.16;;;16.60;100.00
72570;BME280;60594;50.204;8.844;2022-10-16T11:41:50;100154.88;;;16.70;100.00
72570;BME280;60594;50.204;8.844;2022-10-16T11:49:39;100159.06;;;16.64;100.00
72570;BME280;60594;50.204;8.844;2022-10-16T11:55:41;100158.09;;;16.89;100.00
72570;BME280;60594;50.204;8.844;2022-10-16T11:57:51;100153.41;;;16.92;100.00
72570;BME280;60594;50.204;8.844;2022-10-16T12:00:26;100154.41;;;16.83;100.00
72570;BME280;60594;50.204;8.844;2022-10-16T12:08:18;100155.22;;;16.83;100.00
72570;BME280;60594;50.204;8.844;2022-10-16T12:10:47;100154.59;;;16.97;100.00
72570;BME280;60594;50.204;8.844;2022-10-16T12:13:37;100155.97;;;17.09;100.00
72570;BME280;60594;50.204;8.844;2022-10-16T12:16:23;100150.25;;;17.20;100.00
72570;BME280;60594;50.204;8.844;2022-10-16T12:19:09;100155.31;;;17.31;100.00
72570;BME280;60594;50.204;8.844;2022-10-16T12:21:37;100163.63;;;17.38;100.00
72570;BME280;60594;50.204;8.844;2022-10-16T12:24:03;100162.13;;;17.43;100.00
72570;BME280;60594;50.204;8.844;2022-10-16T12:26:38;100161.28;;;17.51;99.11
72570;BME280;60594;50.204;8.844;2022-10-16T12:29:33;100169.88;;;17.78;100.00
72570;BME280;60594;50.204;8.844;2022-10-16T12:32:02;100167.16;;;17.78;97.24
72570;BME280;60594;50.204;8.844;2022-10-16T12:34:42;100156.38;;;17.86;95.89
72570;BME280;60594;50.204;8.844;2022-10-16T12:37:21;100157.84;;;18.13;94.50
72570;BME280;60594;50.204;8.844;2022-10-16T12:39:54;100157.16;;;18.35;92.36
72570;BME280;60594;50.204;8.844;2022-10-16T12:44:54;100157.97;;;18.43;92.62
72570;BME280;60594;50.204;8.844;2022-10-16T12:47:37;100163.09;;;18.69;89.89
72570;BME280;60594;50.204;8.844;2022-10-16T12:50:24;100166.91;;;18.82;90.82
72570;BME280;60594;50.204;8.844;2022-10-16T12:52:51;100163.34;;;18.90;87.38
72570;BME280;60594;50.204;8.844;2022-10-16T12:55:19;100173.69;;;18.78;89.76
72570;BME280;60594;50.204;8.844;2022-10-16T13:00:33;100170.53;;;18.97;87.46
72570;BME280;60594;50.204;8.844;2022-10-16T13:06:04;100180.25;;;19.14;87.11
72570;BME280;60594;50.204;8.844;2022-10-16T13:11:41;100189.22;;;19.15;86.27
72570;BME280;60594;50.204;8.844;2022-10-16T13:20:18;100186.34;;;19.08;86.27
72570;BME280;60594;50.204;8.844;2022-10-16T13:22:56;100191.22;;;19.13;82.26
72570;BME280;60594;50.204;8.844;2022-10-16T13:28:08;100189.97;;;19.01;85.95
72570;BME280;60594;50.204;8.844;2022-10-16T13:30:57;100195.13;;;18.80;86.09
72570;BME280;60594;50.204;8.844;2022-10-16T13:35:57;100196.09;;;18.87;86.79
72570;BME280;60594;50.204;8.844;2022-10-16T13:38:29;100194.22;;;18.95;85.94
72570;BME280;60594;50.204;8.844;2022-10-16T13:41:11;100189.63;;;18.96;86.38
72570;BME280;60594;50.204;8.844;2022-10-16T13:43:50;100185.63;;;18.84;86.49
72570;BME280;60594;50.204;8.844;2022-10-16T13:46:20;100179.34;;;18.61;87.30
72570;BME280;60594;50.204;8.844;2022-10-16T13:51:28;100191.88;;;18.46;89.10
72570;BME280;60594;50.204;8.844;2022-10-16T13:53:56;100185.78;;;18.44;88.74
72570;BME280;60594;50.204;8.844;2022-10-16T13:56:28;100189.53;;;18.35;88.75
72570;BME280;60594;50.204;8.844;2022-10-16T13:59:07;100185.13;;;18.34;89.35
72570;BME280;60594;50.204;8.844;2022-10-16T14:01:48;100180.25;;;18.29;89.52
72570;BME280;60594;50.204;8.844;2022-10-16T14:04:15;100175.34;;;18.41;91.92
72570;BME280;60594;50.204;8.844;2022-10-16T14:06:45;100185.97;;;18.42;91.13
72570;BME280;60594;50.204;8.844;2022-10-16T14:09:26;100176.66;;;18.53;89.97
72570;BME280;60594;50.204;8.844;2022-10-16T14:12:01;100175.84;;;18.44;91.24
72570;BME280;60594;50.204;8.844;2022-10-16T14:14:35;100183.78;;;18.30;90.50
72570;BME280;60594;50.204;8.844;2022-10-16T14:17:05;100177.03;;;18.34;91.11
72570;BME280;60594;50.204;8.844;2022-10-16T14:19:32;100183.59;;;18.47;92.25
72570;BME280;60594;50.204;8.844;2022-10-16T14:21:59;100179.34;;;18.61;93.19
72570;BME280;60594;50.204;8.844;2022-10-16T14:24:33;100171.56;;;18.58;92.28
72570;BME280;60594;50.204;8.844;2022-10-16T14:27:01;100176.16;;;18.49;90.83
72570;BME280;60594;50.204;8.844;2022-10-16T14:29:29;100172.91;;;18.62;92.18
72570;BME280;60594;50.204;8.844;2022-10-16T14:32:01;100165.94;;;18.75;93.68
72570;BME280;60594;50.204;8.844;2022-10-16T14:34:38;100175.22;;;18.73;94.50
72570;BME280;60594;50.204;8.844;2022-10-16T14:37:27;100189.88;;;18.78;93.74
72570;BME280;60594;50.204;8.844;2022-10-16T14:39:54;100186.38;;;18.70;93.39